createdAt,value
2022-12-18T00:02:03.254Z,4.73
2022-12-18T00:04:32.549Z,4.55
2022-12-18T00:07:02.983Z,3.72
2022-12-18T00:09:40.138Z,4.35
2022-12-18T00:14:49.461Z,5.13
2022-12-18T00:17:20.679Z,4.75
2022-12-18T00:19:49.956Z,5.38
2022-12-18T00:22:31.308Z,4.53
2022-12-18T00:25:01.286Z,4.63
2022-12-18T00:27:30.691Z,4.53
2022-12-18T00:29:59.539Z,4.90
2022-12-18T00:32:28.505Z,4.18
2022-12-18T00:34:58.629Z,5.13
2022-12-18T00:37:31.794Z,4.53
2022-12-18T00:40:12.554Z,5.23
2022-12-18T00:42:57.571Z,5.45
2022-12-18T00:45:30.015Z,4.50
2022-12-18T00:48:01.659Z,5.50
2022-12-18T00:50:31.708Z,4.82
2022-12-18T00:53:05.106Z,5.17
2022-12-18T00:55:35.422Z,5.13
2022-12-18T00:58:04.883Z,4.75
2022-12-18T01:00:33.755Z,4.68
2022-12-18T01:03:02.690Z,5.25
2022-12-18T01:05:31.559Z,5.63
2022-12-18T01:08:02.220Z,6.15
2022-12-18T01:10:32.479Z,7.38
2022-12-18T01:13:01.267Z,5.35
2022-12-18T01:15:30.109Z,5.22
2022-12-18T01:17:58.960Z,5.60
2022-12-18T01:20:29.297Z,4.45
2022-12-18T01:22:58.073Z,5.22
2022-12-18T01:25:26.844Z,4.93
2022-12-18T01:27:57.292Z,4.60
2022-12-18T01:30:27.640Z,6.30
2022-12-18T01:32:58.143Z,5.72
2022-12-18T01:35:29.106Z,4.85
2022-12-18T01:37:58.717Z,5.40
2022-12-18T01:40:27.718Z,5.07
2022-12-18T01:42:58.547Z,5.27
2022-12-18T01:45:31.721Z,6.15
2022-12-18T01:48:03.927Z,6.35
2022-12-18T01:50:40.571Z,5.13
2022-12-18T01:53:16.158Z,6.43
2022-12-18T01:55:49.055Z,4.77
2022-12-18T01:58:23.578Z,4.30
2022-12-18T02:00:57.269Z,5.05
2022-12-18T02:03:25.960Z,6.05
2022-12-18T02:06:08.236Z,5.57
2022-12-18T02:08:50.750Z,4.73
2022-12-18T02:11:37.010Z,5.32
2022-12-18T02:14:23.487Z,4.75
2022-12-18T02:17:02.304Z,4.93
2022-12-18T02:19:56.228Z,5.05
2022-12-18T02:22:38.015Z,6.13
2022-12-18T02:25:32.143Z,5.50
2022-12-18T02:28:08.569Z,5.45
2022-12-18T02:30:39.989Z,6.28
2022-12-18T02:33:13.432Z,7.88
2022-12-18T02:35:47.009Z,7.70
2022-12-18T02:38:19.077Z,3.58
2022-12-18T02:40:53.413Z,6.60
2022-12-18T02:43:23.749Z,7.32
2022-12-18T02:45:57.181Z,6.63
2022-12-18T02:48:31.547Z,8.67
2022-12-18T02:51:11.643Z,7.82
2022-12-18T02:53:50.403Z,8.02
2022-12-18T02:56:26.957Z,6.13
2022-12-18T02:59:04.890Z,7.00
2022-12-18T03:01:55.168Z,7.17
2022-12-18T03:04:31.864Z,6.07
2022-12-18T03:07:16.405Z,7.53
2022-12-18T03:09:52.374Z,7.55
2022-12-18T03:12:29.140Z,6.72
2022-12-18T03:15:13.207Z,7.27
2022-12-18T03:17:54.763Z,7.28
2022-12-18T03:20:32.773Z,6.78
2022-12-18T03:23:11.366Z,9.18
2022-12-18T03:25:45.142Z,7.30
2022-12-18T03:28:22.642Z,7.67
2022-12-18T03:31:02.666Z,7.45
2022-12-18T03:33:41.126Z,6.85
2022-12-18T03:36:10.758Z,7.00
2022-12-18T03:38:40.853Z,7.22
2022-12-18T03:41:22.220Z,8.17
2022-12-18T03:44:31.224Z,7.25
2022-12-18T03:47:10.402Z,5.53
2022-12-18T03:49:50.255Z,6.47
2022-12-18T03:52:29.181Z,6.50
2022-12-18T03:55:02.273Z,5.77
2022-12-18T03:57:34.411Z,7.18
2022-12-18T04:00:10.479Z,5.55
2022-12-18T04:03:10.036Z,6.07
2022-12-18T04:05:49.492Z,7.00
2022-12-18T04:08:21.962Z,4.83
2022-12-18T04:10:59.714Z,6.63
2022-12-18T04:13:33.956Z,6.88
2022-12-18T04:16:04.930Z,7.28
2022-12-18T04:18:36.613Z,5.68
2022-12-18T04:21:06.478Z,4.10
2022-12-18T04:23:35.681Z,6.07
2022-12-18T04:26:04.910Z,4.65
2022-12-18T04:28:52.660Z,5.95
2022-12-18T04:31:21.528Z,6.82
2022-12-18T04:33:52.031Z,6.90
2022-12-18T04:36:21.065Z,7.60
2022-12-18T04:38:51.601Z,6.72
2022-12-18T04:41:20.699Z,6.43
2022-12-18T04:43:50.925Z,7.10
2022-12-18T04:46:19.861Z,6.67
2022-12-18T04:48:49.466Z,5.78
2022-12-18T04:51:24.762Z,6.68
2022-12-18T04:53:55.611Z,6.90
2022-12-18T04:56:25.092Z,4.22
2022-12-18T04:58:53.927Z,5.87
2022-12-18T05:01:22.698Z,6.78
2022-12-18T05:03:55.981Z,6.70
2022-12-18T05:06:26.145Z,8.10
2022-12-18T05:08:56.225Z,6.63
2022-12-18T05:11:25.077Z,6.17
2022-12-18T05:13:53.798Z,6.13
2022-12-18T05:16:27.377Z,6.70
2022-12-18T05:18:58.096Z,5.50
2022-12-18T05:21:28.263Z,6.85
2022-12-18T05:23:57.038Z,8.50
2022-12-18T05:26:25.746Z,7.18
2022-12-18T05:28:54.408Z,6.32
2022-12-18T05:31:23.935Z,7.88
2022-12-18T05:33:52.718Z,8.63
2022-12-18T05:36:21.402Z,8.23
2022-12-18T05:38:51.479Z,7.57
2022-12-18T05:41:20.205Z,7.65
2022-12-18T05:43:48.995Z,7.18
2022-12-18T05:46:19.759Z,6.55
2022-12-18T05:48:49.366Z,7.00
2022-12-18T05:51:21.992Z,7.70
2022-12-18T05:53:52.103Z,7.97
2022-12-18T05:56:25.279Z,7.63
2022-12-18T05:58:55.729Z,6.80
2022-12-18T06:01:27.595Z,7.07
2022-12-18T06:03:57.784Z,7.72
2022-12-18T06:06:29.607Z,6.25
2022-12-18T06:09:00.252Z,5.78
2022-12-18T06:11:29.696Z,5.38
2022-12-18T06:14:00.265Z,7.10
2022-12-18T06:16:30.751Z,6.13
2022-12-18T06:19:00.530Z,8.10
2022-12-18T06:21:29.867Z,5.45
2022-12-18T06:24:00.500Z,8.25
2022-12-18T06:26:29.361Z,9.10
2022-12-18T06:28:58.236Z,8.20
2022-12-18T06:31:28.435Z,8.50
2022-12-18T06:33:58.000Z,8.13
2022-12-18T06:36:26.944Z,7.07
2022-12-18T06:38:55.620Z,7.07
2022-12-18T06:41:25.909Z,9.65
2022-12-18T06:43:59.560Z,11.10
2022-12-18T06:46:28.960Z,18.95
2022-12-18T06:48:57.733Z,13.07
2022-12-18T06:51:26.919Z,11.47
2022-12-18T06:53:55.573Z,14.48
2022-12-18T06:56:25.825Z,13.45
2022-12-18T06:58:54.923Z,16.77
2022-12-18T07:01:25.099Z,17.20
2022-12-18T07:03:55.904Z,12.30
2022-12-18T07:06:27.506Z,12.95
2022-12-18T07:08:57.310Z,12.23
2022-12-18T07:11:27.437Z,14.98
2022-12-18T07:13:56.587Z,9.77
2022-12-18T07:16:26.126Z,12.27
2022-12-18T07:18:56.267Z,11.13
2022-12-18T07:21:27.007Z,12.30
2022-12-18T07:23:55.949Z,9.05
2022-12-18T07:26:27.387Z,15.05
2022-12-18T07:28:59.134Z,15.10
2022-12-18T07:31:28.865Z,10.98
2022-12-18T07:33:58.073Z,11.20
2022-12-18T07:36:28.529Z,10.13
2022-12-18T07:38:57.355Z,16.65
2022-12-18T07:41:27.390Z,9.97
2022-12-18T07:43:56.040Z,6.05
2022-12-18T07:46:25.136Z,9.70
2022-12-18T07:48:54.074Z,9.77
2022-12-18T07:51:22.955Z,7.60
2022-12-18T07:53:52.413Z,9.83
2022-12-18T07:56:27.776Z,11.05
2022-12-18T07:58:59.485Z,8.10
2022-12-18T08:01:37.391Z,8.48
2022-12-18T08:04:06.559Z,8.18
2022-12-18T08:06:35.287Z,9.33
2022-12-18T08:09:04.611Z,10.60
2022-12-18T08:11:33.615Z,9.90
2022-12-18T08:14:03.711Z,9.43
2022-12-18T08:16:33.702Z,8.93
2022-12-18T08:19:02.722Z,8.73
2022-12-18T08:21:33.349Z,9.68
2022-12-18T08:24:03.783Z,6.32
2022-12-18T08:26:33.705Z,8.07
2022-12-18T08:29:04.264Z,9.95
2022-12-18T08:31:34.053Z,7.17
2022-12-18T08:34:02.973Z,7.22
2022-12-18T08:36:31.715Z,5.60
2022-12-18T08:39:00.408Z,5.72
2022-12-18T08:41:29.228Z,6.38
2022-12-18T08:44:15.447Z,15.67
2022-12-18T08:46:46.521Z,5.97
2022-12-18T08:49:15.688Z,6.75
2022-12-18T08:51:44.540Z,9.75
2022-12-18T08:54:15.166Z,7.80
2022-12-18T08:56:44.018Z,5.13
2022-12-18T08:59:19.157Z,6.13
2022-12-18T09:01:49.968Z,7.22
2022-12-18T09:04:18.888Z,6.75
2022-12-18T09:06:47.622Z,6.97
2022-12-18T09:09:16.395Z,7.73
2022-12-18T09:11:45.159Z,5.63
2022-12-18T09:14:13.817Z,5.53
2022-12-18T09:16:43.500Z,5.55
2022-12-18T09:19:15.592Z,5.95
2022-12-18T09:21:51.976Z,6.40
2022-12-18T09:24:29.283Z,8.20
2022-12-18T09:26:58.315Z,4.50
2022-12-18T09:29:27.111Z,6.15
2022-12-18T09:31:55.850Z,10.68
2022-12-18T09:34:26.140Z,4.37
2022-12-18T09:36:54.975Z,4.03
2022-12-18T09:39:24.487Z,5.93
2022-12-18T09:41:55.813Z,4.45
2022-12-18T09:44:30.222Z,5.80
2022-12-18T09:47:11.740Z,3.17
2022-12-18T09:49:46.109Z,7.50
2022-12-18T09:52:23.925Z,7.68
2022-12-18T09:55:00.244Z,6.05
2022-12-18T09:57:29.164Z,5.20
2022-12-18T10:00:05.452Z,4.77
2022-12-18T10:02:40.850Z,6.60
2022-12-18T10:05:16.452Z,7.68
2022-12-18T10:08:01.907Z,6.32
2022-12-18T10:10:41.829Z,5.47
2022-12-18T10:13:24.095Z,5.53
2022-12-18T10:16:09.741Z,7.32
2022-12-18T10:19:07.205Z,6.25
2022-12-18T10:21:48.162Z,5.45
2022-12-18T10:24:26.930Z,4.80
2022-12-18T10:27:07.111Z,5.63
2022-12-18T10:29:35.875Z,5.60
2022-12-18T10:32:04.676Z,4.97
2022-12-18T10:34:33.418Z,5.15
2022-12-18T10:37:14.125Z,3.97
2022-12-18T10:39:42.811Z,4.47
2022-12-18T10:42:18.449Z,4.40
2022-12-18T10:44:47.686Z,4.05
2022-12-18T10:47:21.300Z,4.38
2022-12-18T10:49:56.098Z,3.45
2022-12-18T10:52:29.645Z,3.97
2022-12-18T10:55:05.167Z,3.55
2022-12-18T10:57:39.104Z,3.83
2022-12-18T11:00:38.175Z,4.75
2022-12-18T11:03:38.063Z,4.15
2022-12-18T11:06:12.855Z,3.63
2022-12-18T11:08:44.364Z,2.78
2022-12-18T11:11:25.215Z,3.13
2022-12-18T11:14:08.936Z,3.10
2022-12-18T11:17:02.986Z,3.20
2022-12-18T11:19:40.855Z,3.23
2022-12-18T11:22:23.874Z,2.47
2022-12-18T11:25:30.657Z,2.65
2022-12-18T11:27:53.265Z,2.92
2022-12-18T11:30:30.683Z,2.38
2022-12-18T11:33:06.458Z,2.80
2022-12-18T11:35:47.850Z,3.33
2022-12-18T11:38:26.461Z,3.33
2022-12-18T11:41:02.772Z,4.05
2022-12-18T11:43:38.013Z,3.00
2022-12-18T11:46:19.414Z,2.80
2022-12-18T11:48:58.728Z,2.90
2022-12-18T11:51:37.526Z,4.32
2022-12-18T11:54:18.146Z,3.53
2022-12-18T11:56:53.482Z,3.08
2022-12-18T11:59:35.384Z,3.90
2022-12-18T12:02:25.397Z,3.90
2022-12-18T12:05:21.243Z,4.97
2022-12-18T12:08:02.059Z,4.10
2022-12-18T12:10:48.914Z,2.95
2022-12-18T12:13:34.735Z,2.50
2022-12-18T12:16:18.846Z,3.85
2022-12-18T12:19:18.618Z,3.67
2022-12-18T12:21:56.672Z,2.97
2022-12-18T12:24:48.097Z,3.60
2022-12-18T12:27:32.245Z,4.00
2022-12-18T12:30:20.960Z,3.50
2022-12-18T12:33:24.584Z,4.97
2022-12-18T12:36:07.698Z,4.35
2022-12-18T12:38:49.880Z,3.63
2022-12-18T12:41:44.506Z,4.45
2022-12-18T12:44:24.238Z,3.43
2022-12-18T12:47:01.669Z,4.03
2022-12-18T12:49:40.453Z,3.42
2022-12-18T12:52:18.953Z,4.80
2022-12-18T12:54:49.430Z,4.35
2022-12-18T12:57:25.520Z,3.80
2022-12-18T13:00:05.488Z,3.80
2022-12-18T13:02:44.919Z,2.67
2022-12-18T13:05:25.840Z,3.63
2022-12-18T13:08:03.809Z,3.40
2022-12-18T13:10:38.860Z,4.03
2022-12-18T13:13:11.052Z,2.97
2022-12-18T13:15:44.263Z,4.13
2022-12-18T13:18:26.480Z,4.10
2022-12-18T13:21:15.025Z,3.53
2022-12-18T13:23:45.160Z,3.57
2022-12-18T13:26:35.419Z,4.05
2022-12-18T13:29:07.196Z,4.35
2022-12-18T13:32:04.052Z,1.88
2022-12-18T13:34:33.809Z,4.30
2022-12-18T13:37:43.014Z,3.70
2022-12-18T13:41:00.327Z,4.65
2022-12-18T13:43:55.168Z,3.75
2022-12-18T13:46:32.930Z,3.83
2022-12-18T13:49:07.582Z,3.67
2022-12-18T13:51:37.763Z,3.10
2022-12-18T13:54:22.283Z,4.72
2022-12-18T13:56:52.228Z,4.20
2022-12-18T13:59:24.903Z,3.88
2022-12-18T14:01:58.740Z,5.18
2022-12-18T14:04:30.693Z,4.17
2022-12-18T14:07:06.463Z,3.67
2022-12-18T14:09:42.094Z,4.30
2022-12-18T14:12:37.034Z,5.65
2022-12-18T14:15:20.282Z,3.20
2022-12-18T14:17:54.049Z,5.83
2022-12-18T14:20:23.546Z,3.10
2022-12-18T14:22:53.470Z,3.72
2022-12-18T14:25:25.533Z,4.25
2022-12-18T14:28:17.921Z,4.05
2022-12-18T14:30:48.591Z,3.50
2022-12-18T14:33:24.773Z,4.82
2022-12-18T14:36:01.740Z,3.97
2022-12-18T14:38:33.507Z,3.38
2022-12-18T14:41:05.685Z,3.85
2022-12-18T14:43:38.074Z,4.47
2022-12-18T14:46:27.965Z,5.28
2022-12-18T14:48:59.459Z,4.07
2022-12-18T14:51:30.523Z,4.22
2022-12-18T14:54:02.560Z,2.80
2022-12-18T14:56:34.985Z,3.73
2022-12-18T14:59:08.108Z,3.00
2022-12-18T15:01:40.487Z,3.00
2022-12-18T15:04:29.187Z,3.50
2022-12-18T15:07:20.105Z,3.05
2022-12-18T15:10:11.673Z,4.07
2022-12-18T15:12:44.383Z,2.42
2022-12-18T15:15:51.343Z,3.85
2022-12-18T15:18:23.023Z,2.70
2022-12-18T15:20:56.212Z,3.30
2022-12-18T15:23:28.625Z,4.00
2022-12-18T15:26:00.939Z,2.80
2022-12-18T15:28:35.896Z,2.97
2022-12-18T15:31:09.161Z,2.03
2022-12-18T15:33:40.666Z,2.63
2022-12-18T15:36:14.719Z,2.40
2022-12-18T15:38:43.707Z,2.55
2022-12-18T15:41:18.918Z,2.72
2022-12-18T15:43:53.136Z,3.05
2022-12-18T15:46:24.639Z,3.22
2022-12-18T15:49:01.377Z,4.33
2022-12-18T15:51:36.329Z,3.13
2022-12-18T15:54:08.834Z,3.92
2022-12-18T15:56:53.980Z,3.13
2022-12-18T15:59:23.765Z,4.28
2022-12-18T16:01:55.252Z,3.80
2022-12-18T16:04:25.864Z,4.20
2022-12-18T16:07:14.564Z,4.65
2022-12-18T16:09:44.094Z,3.03
2022-12-18T16:12:20.219Z,4.30
2022-12-18T16:14:49.389Z,4.53
2022-12-18T16:17:18.438Z,3.55
2022-12-18T16:19:47.298Z,3.75
2022-12-18T16:22:23.878Z,3.55
2022-12-18T16:24:54.025Z,3.20
2022-12-18T16:27:24.224Z,3.60
2022-12-18T16:29:53.487Z,4.18
2022-12-18T16:32:24.489Z,3.30
2022-12-18T16:34:53.467Z,3.08
2022-12-18T16:37:26.611Z,2.65
2022-12-18T16:39:55.730Z,3.10
2022-12-18T16:42:25.412Z,2.65
2022-12-18T16:44:55.701Z,1.98
2022-12-18T16:47:24.470Z,4.18
2022-12-18T16:49:53.705Z,3.75
2022-12-18T16:52:23.545Z,3.50
2022-12-18T16:54:54.453Z,2.97
2022-12-18T16:57:25.339Z,3.10
2022-12-18T16:59:56.071Z,1.00
2022-12-18T17:02:29.414Z,3.70
2022-12-18T17:04:59.832Z,3.57
2022-12-18T17:07:29.468Z,3.17
2022-12-18T17:09:59.708Z,3.50
2022-12-18T17:12:28.596Z,3.20
2022-12-18T17:14:57.372Z,3.55
2022-12-18T17:17:34.647Z,4.40
2022-12-18T17:20:03.437Z,3.75
2022-12-18T17:22:32.509Z,3.13
2022-12-18T17:25:03.135Z,3.75
2022-12-18T17:27:32.061Z,2.97
2022-12-18T17:30:00.695Z,3.63
2022-12-18T17:32:29.616Z,3.88
2022-12-18T17:35:02.583Z,3.78
2022-12-18T17:37:34.425Z,3.63
2022-12-18T17:40:05.176Z,3.75
2022-12-18T17:42:34.141Z,3.73
2022-12-18T17:45:02.889Z,2.10
2022-12-18T17:47:32.534Z,4.00
2022-12-18T17:50:01.274Z,4.00
2022-12-18T17:52:30.494Z,4.20
2022-12-18T17:54:59.336Z,4.20
2022-12-18T17:57:29.750Z,4.40
2022-12-18T17:59:58.522Z,3.55
2022-12-18T18:02:27.526Z,4.78
2022-12-18T18:04:57.260Z,4.57
2022-12-18T18:07:26.037Z,3.63
2022-12-18T18:09:54.824Z,4.25
2022-12-18T18:12:40.668Z,3.63
2022-12-18T18:15:13.007Z,4.38
2022-12-18T18:17:41.698Z,4.07
2022-12-18T18:20:12.203Z,4.37
2022-12-18T18:22:41.049Z,4.75
2022-12-18T18:25:09.923Z,4.32
2022-12-18T18:27:39.506Z,3.13
2022-12-18T18:30:12.447Z,4.80
2022-12-18T18:32:41.427Z,3.57
2022-12-18T18:35:24.553Z,3.97
2022-12-18T18:37:53.486Z,4.07
2022-12-18T18:40:22.567Z,3.15
2022-12-18T18:42:54.065Z,4.35
2022-12-18T18:45:24.278Z,2.67
2022-12-18T18:47:53.036Z,3.67
2022-12-18T18:50:21.766Z,3.25
2022-12-18T18:52:50.493Z,4.75
2022-12-18T18:55:25.493Z,4.28
2022-12-18T18:57:54.799Z,4.03
2022-12-18T19:00:24.953Z,3.78
2022-12-18T19:02:59.020Z,3.95
2022-12-18T19:05:29.342Z,3.60
2022-12-18T19:07:58.586Z,2.58
2022-12-18T19:10:27.355Z,3.23
2022-12-18T19:13:13.575Z,3.95
2022-12-18T19:15:43.801Z,4.13
2022-12-18T19:18:12.695Z,3.38
2022-12-18T19:20:41.699Z,5.10
2022-12-18T19:23:10.588Z,4.00
2022-12-18T19:25:41.585Z,3.50
2022-12-18T19:28:21.188Z,3.75
2022-12-18T19:30:57.330Z,4.22
2022-12-18T19:33:45.382Z,3.08
2022-12-18T19:36:19.633Z,3.27
2022-12-18T19:38:49.326Z,4.07
2022-12-18T19:41:19.242Z,3.28
2022-12-18T19:43:48.856Z,4.15
2022-12-18T19:46:21.806Z,3.47
2022-12-18T19:48:51.689Z,4.60
2022-12-18T19:51:24.003Z,4.15
2022-12-18T19:53:58.398Z,3.22
2022-12-18T19:56:31.017Z,4.53
2022-12-18T19:59:00.306Z,3.63
2022-12-18T20:01:32.664Z,3.57
2022-12-18T20:04:01.967Z,3.85
2022-12-18T20:06:34.576Z,3.28
2022-12-18T20:09:08.310Z,3.90
2022-12-18T20:11:42.011Z,4.57
2022-12-18T20:14:11.434Z,3.50
2022-12-18T20:16:42.788Z,3.25
2022-12-18T20:19:14.360Z,2.70
2022-12-18T20:21:44.564Z,2.08
2022-12-18T20:24:13.561Z,3.45
2022-12-18T20:26:43.365Z,3.40
2022-12-18T20:29:12.161Z,3.20
2022-12-18T20:31:42.410Z,2.83
2022-12-18T20:34:11.196Z,3.83
2022-12-18T20:36:41.077Z,3.88
2022-12-18T20:39:12.247Z,3.80
2022-12-18T20:41:42.078Z,3.15
2022-12-18T20:44:23.554Z,3.85
2022-12-18T20:46:57.757Z,2.33
2022-12-18T20:49:28.251Z,3.00
2022-12-18T20:51:59.526Z,2.63
2022-12-18T20:54:29.263Z,4.10
2022-12-18T20:56:58.716Z,3.50
2022-12-18T20:59:27.567Z,3.15
2022-12-18T21:01:58.174Z,2.97
2022-12-18T21:04:27.155Z,2.60
2022-12-18T21:07:02.430Z,3.17
2022-12-18T21:09:37.857Z,2.75
2022-12-18T21:12:33.498Z,2.08
2022-12-18T21:15:11.229Z,2.83
2022-12-18T21:17:44.774Z,2.47
2022-12-18T21:20:17.276Z,2.72
2022-12-18T21:22:47.063Z,2.20
2022-12-18T21:25:15.789Z,2.90
2022-12-18T21:27:44.614Z,2.15
2022-12-18T21:30:15.090Z,3.20
2022-12-18T21:32:45.361Z,2.90
2022-12-18T21:35:14.134Z,3.65
2022-12-18T21:37:42.803Z,2.65
2022-12-18T21:40:14.047Z,2.83
2022-12-18T21:43:00.090Z,2.57
2022-12-18T21:45:28.846Z,3.40
2022-12-18T21:47:59.124Z,2.95
2022-12-18T21:50:27.879Z,3.13
2022-12-18T21:52:56.579Z,3.40
2022-12-18T21:55:25.397Z,3.83
2022-12-18T21:57:56.828Z,3.05
2022-12-18T22:00:25.836Z,3.88
2022-12-18T22:03:16.995Z,2.95
2022-12-18T22:05:44.659Z,3.15
2022-12-18T22:08:13.762Z,3.47
2022-12-18T22:10:42.890Z,3.33
2022-12-18T22:13:12.171Z,2.97
2022-12-18T22:15:40.884Z,2.78
2022-12-18T22:18:09.819Z,3.10
2022-12-18T22:20:38.565Z,2.80
2022-12-18T22:23:09.242Z,3.38
2022-12-18T22:25:40.096Z,2.20
2022-12-18T22:28:26.177Z,2.60
2022-12-18T22:30:59.527Z,3.22
2022-12-18T22:33:29.527Z,3.40
2022-12-18T22:35:58.280Z,2.60
2022-12-18T22:38:28.823Z,2.70
2022-12-18T22:40:57.924Z,3.05
2022-12-18T22:43:26.690Z,2.53
2022-12-18T22:45:55.556Z,1.87
2022-12-18T22:48:24.443Z,2.20
2022-12-18T22:50:59.337Z,2.28
2022-12-18T22:53:29.951Z,2.20
2022-12-18T22:56:02.707Z,1.98
2022-12-18T22:58:32.079Z,2.07
2022-12-18T23:01:00.827Z,1.70
2022-12-18T23:03:29.909Z,2.30
2022-12-18T23:06:06.066Z,2.67
2022-12-18T23:08:36.705Z,2.25
2022-12-18T23:11:06.657Z,1.87
2022-12-18T23:13:37.553Z,2.22
2022-12-18T23:16:19.410Z,2.60
2022-12-18T23:18:51.636Z,1.65
2022-12-18T23:21:25.699Z,1.98
2022-12-18T23:24:00.114Z,1.83
2022-12-18T23:26:32.141Z,2.05
2022-12-18T23:29:24.427Z,1.80
2022-12-18T23:31:55.095Z,2.05
2022-12-18T23:34:25.199Z,2.58
2022-12-18T23:36:56.230Z,2.37
2022-12-18T23:39:29.599Z,2.30
2022-12-18T23:41:59.438Z,1.60
2022-12-18T23:44:28.796Z,2.30
2022-12-18T23:46:57.521Z,1.83
2022-12-18T23:49:26.329Z,1.90
2022-12-18T23:51:55.778Z,2.20
2022-12-18T23:54:33.466Z,2.58
2022-12-18T23:57:03.238Z,2.03
2022-12-18T23:59:32.237Z,3.88
